Terminal Aerodrome Forecast
Issued by NWS Cleveland, OH

Home | Current Version | Previous Version | Text Only | Print | Product List | Glossary On
Versions: 1 2 3 4 5 6 7 8 9 10 11 12 13 14
923
FTUS41 KCLE 270533
TAFTOL
TAF
KTOL 270533Z 2706/2806 29007KT P6SM FEW025 SCT100
      TEMPO 2706/2709 SCT008 BKN015
     FM270900 29012KT P6SM BKN050
     FM272000 27010KT P6SM SCT050=

USA.gov is the U.S. government's official web portal to all federal, state and local government web resources and services.